Аэропорт: Кольцово. Екатеринбург

ICAO: USSS

METAR:
2019/05/26 14:00
USSS 261400Z 22005MPS CAVOK 18/M01 Q1017 R26R/010060 NOSIG RMK QFE742/0990
METAR:
2019/05/26 12:24
TAF USSS 261053Z 2612/2712 23003G14MPS CAVOK 
      BECMG 2615/2616 19003G09MPS 
      BECMG 2705/2706 20003G14MPS BKN020CB